Time;durP1;ratioP1;P1;durP2;ratioP2;P2;SDS_P1;SDS_P2;PMS_P1;PMS_P2;Temp;Humidity;BMP_temperature;BMP_pressure;BME280_temperature;BME280_humidity;BME280_pressure;Samples;Min_cycle;Max_cycle;Signal;HPM_P1;HPM_P2
2022/06/01 00:00:52;;;;;;;5.13;2.70;;;14.80;73.50;;;;;;5056824;28;20055;-88
2022/06/01 00:03:18;;;;;;;4.13;2.90;;;14.80;73.80;;;;;;5037371;28;20075;-88
2022/06/01 00:05:43;;;;;;;3.38;3.08;;;14.80;74.00;;;;;;5049922;28;20021;-87
2022/06/01 00:08:09;;;;;;;4.13;2.55;;;14.80;74.10;;;;;;5052520;28;20024;-85
2022/06/01 00:10:35;;;;;;;2.75;2.50;;;14.80;74.20;;;;;;5031492;28;20017;-88
2022/06/01 00:13:01;;;;;;;3.03;2.47;;;14.80;74.00;;;;;;5052643;28;20067;-88
2022/06/01 00:15:27;;;;;;;4.00;2.50;;;14.70;74.30;;;;;;5049439;28;20075;-88
2022/06/01 00:17:56;;;;;;;3.92;2.50;;;14.60;74.50;;;;;;5041688;28;20036;-88
2022/06/01 00:20:21;;;;;;;3.80;2.50;;;14.60;74.90;;;;;;5035422;28;20393;-88
2022/06/01 00:22:47;;;;;;;3.30;2.45;;;14.50;75.00;;;;;;5037485;28;20032;-87
2022/06/01 00:25:14;;;;;;;2.83;2.50;;;14.50;75.00;;;;;;5027728;28;20022;-88
2022/06/01 00:27:39;;;;;;;3.95;2.75;;;14.50;75.10;;;;;;5025034;28;20025;-89
2022/06/01 00:30:08;;;;;;;4.40;2.47;;;14.50;75.30;;;;;;5030614;28;20074;-89
2022/06/01 00:32:34;;;;;;;4.22;2.55;;;14.50;75.70;;;;;;5026299;28;20640;-88
2022/06/01 00:35:01;;;;;;;4.13;2.30;;;14.40;75.80;;;;;;5030997;28;20024;-88
2022/06/01 00:37:27;;;;;;;2.80;2.53;;;14.40;76.00;;;;;;5040757;28;20698;-88
2022/06/01 00:39:55;;;;;;;2.80;2.28;;;14.40;76.10;;;;;;5048733;28;20159;-89
2022/06/01 00:42:24;;;;;;;3.35;2.53;;;14.40;76.20;;;;;;5031742;28;20517;-88
2022/06/01 00:44:50;;;;;;;3.80;2.35;;;14.40;76.30;;;;;;5033837;28;20025;-89
2022/06/01 00:47:16;;;;;;;3.05;2.05;;;14.30;76.30;;;;;;5034308;28;20128;-89
2022/06/01 00:49:46;;;;;;;5.28;2.72;;;14.30;76.30;;;;;;5042224;28;20495;-89
2022/06/01 00:52:13;;;;;;;3.15;2.50;;;14.30;76.70;;;;;;5032758;28;20028;-88
2022/06/01 00:54:39;;;;;;;4.85;2.75;;;14.30;76.70;;;;;;5039350;28;20075;-89
2022/06/01 00:57:12;;;;;;;3.20;2.67;;;14.20;76.90;;;;;;5041614;28;20033;-88
2022/06/01 00:59:43;;;;;;;3.13;2.40;;;14.20;77.10;;;;;;5033726;28;20024;-88
2022/06/01 01:02:09;;;;;;;5.28;3.38;;;14.10;77.20;;;;;;5032517;28;20111;-89
2022/06/01 01:04:38;;;;;;;3.08;2.50;;;14.10;77.30;;;;;;5034443;28;20029;-88
2022/06/01 01:07:06;;;;;;;4.18;2.60;;;14.10;77.50;;;;;;5050571;28;20056;-89
2022/06/01 01:09:34;;;;;;;4.25;3.00;;;14.10;77.50;;;;;;5031183;28;20029;-88
2022/06/01 01:12:06;;;;;;;3.55;2.60;;;14.00;77.60;;;;;;5029168;28;20127;-89
2022/06/01 01:14:35;;;;;;;2.78;2.50;;;14.00;78.10;;;;;;5030727;28;20108;-89
2022/06/01 01:17:04;;;;;;;3.22;2.53;;;14.00;78.00;;;;;;5038997;28;20028;-89
2022/06/01 01:19:34;;;;;;;3.20;2.65;;;14.00;78.30;;;;;;5040019;28;20045;-89
2022/06/01 01:22:18;;;;;;;3.30;3.00;;;13.90;78.30;;;;;;5034105;28;20047;-89
2022/06/01 01:25:10;;;;;;;3.85;2.55;;;13.90;78.50;;;;;;5041000;28;20029;-89
2022/06/01 01:27:36;;;;;;;3.63;2.70;;;13.90;78.80;;;;;;5030707;28;20029;-89
2022/06/01 01:30:27;;;;;;;3.10;2.80;;;13.80;79.10;;;;;;5032213;28;20519;-89
2022/06/01 01:32:53;;;;;;;3.15;2.83;;;13.80;79.20;;;;;;5060635;28;20028;-89
2022/06/01 01:35:19;;;;;;;5.05;2.90;;;13.80;79.30;;;;;;5046539;28;20111;-89
2022/06/01 01:37:47;;;;;;;3.50;2.83;;;13.80;79.30;;;;;;5051770;28;20441;-89
2022/06/01 01:40:13;;;;;;;5.55;3.15;;;13.70;79.40;;;;;;5028694;28;20061;-88
2022/06/01 01:42:39;;;;;;;3.40;3.10;;;13.70;79.80;;;;;;5030361;28;20413;-89
2022/06/01 01:45:16;;;;;;;4.10;2.78;;;13.60;80.30;;;;;;5059652;28;20025;-89
2022/06/01 01:47:42;;;;;;;6.40;3.10;;;13.60;80.90;;;;;;5044190;28;20094;-90
2022/06/01 01:50:09;;;;;;;3.70;3.08;;;13.60;80.80;;;;;;5036250;28;20037;-89
2022/06/01 01:52:38;;;;;;;3.92;3.00;;;13.70;81.00;;;;;;5029371;28;20044;-89
2022/06/01 01:55:26;;;;;;;3.83;3.40;;;13.60;81.50;;;;;;5030830;28;20033;-89
2022/06/01 01:58:15;;;;;;;4.38;3.40;;;13.60;81.10;;;;;;5050444;28;20095;-89
2022/06/01 02:00:47;;;;;;;4.20;3.65;;;13.50;81.00;;;;;;5044438;28;20021;-89
2022/06/01 02:03:25;;;;;;;4.78;3.67;;;13.50;81.00;;;;;;5030315;28;20029;-89
2022/06/01 02:06:05;;;;;;;4.53;3.80;;;13.50;81.10;;;;;;5041666;28;20032;-89
2022/06/01 02:08:48;;;;;;;5.07;3.95;;;13.50;81.40;;;;;;5032048;28;20496;-89
2022/06/01 02:14:42;;;;;;;5.70;4.60;;;13.50;81.90;;;;;;5043246;28;20036;-88
2022/06/01 02:17:15;;;;;;;6.00;5.32;;;13.40;82.20;;;;;;5025427;28;20021;-89
2022/06/01 02:20:10;;;;;;;6.40;4.75;;;13.30;81.90;;;;;;5023203;28;20025;-89
2022/06/01 02:22:41;;;;;;;7.20;4.60;;;13.10;81.90;;;;;;5043530;28;20044;-89
2022/06/01 02:25:09;;;;;;;7.68;4.95;;;13.10;82.30;;;;;;5036698;28;20024;-89
2022/06/01 02:27:38;;;;;;;6.93;5.40;;;13.10;82.70;;;;;;5048932;28;20017;-88
2022/06/01 02:30:12;;;;;;;6.00;4.97;;;13.10;82.90;;;;;;5049425;28;20029;-88
2022/06/01 02:32:40;;;;;;;7.38;5.55;;;13.10;83.10;;;;;;5058633;28;20097;-88
2022/06/01 02:35:07;;;;;;;7.03;5.70;;;13.10;83.10;;;;;;5061739;28;20449;-88
2022/06/01 02:37:35;;;;;;;6.32;5.53;;;13.00;83.20;;;;;;5034980;28;20481;-89
2022/06/01 02:40:06;;;;;;;6.72;5.13;;;12.90;83.40;;;;;;5021298;28;20067;-89
2022/06/01 02:42:31;;;;;;;6.18;5.57;;;12.90;83.60;;;;;;5027462;28;20111;-89
2022/06/01 02:45:09;;;;;;;7.43;5.50;;;12.80;83.70;;;;;;5055988;28;20452;-89
2022/06/01 02:47:38;;;;;;;8.70;5.43;;;12.90;84.20;;;;;;5026079;28;20021;-89
2022/06/01 02:50:12;;;;;;;7.72;5.47;;;12.80;84.10;;;;;;5048121;28;20051;-88
2022/06/01 02:52:38;;;;;;;6.68;5.38;;;12.80;84.30;;;;;;5048256;28;20032;-89
2022/06/01 02:55:05;;;;;;;4.70;4.28;;;12.80;84.30;;;;;;5035739;28;20093;-89
2022/06/01 02:57:32;;;;;;;5.20;4.45;;;12.80;84.30;;;;;;5024817;28;20036;-89
2022/06/01 03:00:00;;;;;;;5.18;4.53;;;12.70;84.40;;;;;;5033791;28;20425;-89
2022/06/01 03:02:26;;;;;;;5.70;4.88;;;12.80;84.50;;;;;;5025721;28;20041;-89
2022/06/01 03:04:52;;;;;;;8.00;4.57;;;12.70;84.70;;;;;;5034709;28;20104;-89
2022/06/01 03:07:18;;;;;;;5.95;4.45;;;12.80;85.00;;;;;;5030826;28;20025;-90
2022/06/01 03:09:44;;;;;;;6.45;4.65;;;12.80;85.00;;;;;;5043320;28;20481;-90
2022/06/01 03:12:12;;;;;;;8.05;4.55;;;12.80;85.10;;;;;;5029324;28;20029;-90
2022/06/01 03:14:38;;;;;;;5.65;4.50;;;12.80;85.20;;;;;;5030470;28;20424;-89
2022/06/01 03:17:05;;;;;;;7.70;4.57;;;12.90;85.30;;;;;;5041378;28;20076;-89
2022/06/01 03:19:31;;;;;;;5.32;4.68;;;12.90;85.30;;;;;;5039976;28;20077;-89
2022/06/01 03:21:57;;;;;;;6.10;4.63;;;12.90;85.30;;;;;;5031257;28;20029;-89
2022/06/01 03:24:22;;;;;;;5.55;4.55;;;12.80;85.30;;;;;;5031165;28;20040;-89
2022/06/01 03:26:48;;;;;;;6.30;4.93;;;12.90;85.60;;;;;;5046785;28;20032;-89
2022/06/01 03:29:14;;;;;;;6.78;5.38;;;12.90;85.70;;;;;;5015989;28;20385;-89
2022/06/01 03:31:40;;;;;;;5.25;4.68;;;12.90;85.80;;;;;;5030001;28;20033;-89
2022/06/01 03:34:06;;;;;;;6.00;5.40;;;12.90;85.90;;;;;;5027218;28;20401;-89
2022/06/01 03:36:31;;;;;;;5.85;4.95;;;12.90;85.90;;;;;;5033292;28;20017;-89
2022/06/01 03:38:57;;;;;;;5.93;4.75;;;12.90;85.80;;;;;;5043195;28;20255;-88
2022/06/01 03:41:27;;;;;;;7.93;4.85;;;12.90;85.90;;;;;;5047152;28;20066;-88
2022/06/01 03:46:37;;;;;;;5.68;4.85;;;12.80;86.10;;;;;;5066940;28;20041;-88
2022/06/01 03:49:03;;;;;;;5.93;4.60;;;12.80;86.30;;;;;;5027413;28;20037;-89
2022/06/01 03:51:29;;;;;;;5.72;4.70;;;12.80;86.50;;;;;;5027003;28;20021;-90
2022/06/01 03:53:54;;;;;;;6.93;4.95;;;12.80;86.50;;;;;;5031543;28;20478;-89
2022/06/01 03:56:25;;;;;;;7.15;4.65;;;12.80;86.70;;;;;;5027299;28;20040;-88
2022/06/01 03:58:51;;;;;;;6.50;4.65;;;12.80;86.90;;;;;;5030057;28;20025;-89
2022/06/01 04:01:18;;;;;;;4.75;4.28;;;12.90;86.70;;;;;;5031914;28;20024;-89
2022/06/01 04:03:44;;;;;;;5.47;4.40;;;12.90;86.80;;;;;;5033122;28;20027;-89
2022/06/01 04:06:09;;;;;;;5.82;4.60;;;12.90;86.80;;;;;;5027537;28;20112;-89
2022/06/01 04:08:35;;;;;;;7.20;4.85;;;12.90;86.80;;;;;;5034632;28;20430;-89
2022/06/01 04:11:01;;;;;;;5.50;5.00;;;12.90;86.80;;;;;;5029726;28;20037;-89
2022/06/01 04:13:27;;;;;;;6.50;5.25;;;12.90;87.00;;;;;;5030535;28;20063;-89
2022/06/01 04:15:54;;;;;;;8.40;5.18;;;12.90;87.00;;;;;;5032849;28;20116;-89
2022/06/01 04:18:19;;;;;;;6.53;5.25;;;12.90;86.90;;;;;;5030409;28;20501;-90
2022/06/01 04:20:47;;;;;;;7.05;5.15;;;12.90;86.90;;;;;;5047894;28;20104;-89
2022/06/01 04:23:13;;;;;;;7.88;5.28;;;12.80;86.90;;;;;;5032270;28;20029;-90
2022/06/01 04:25:39;;;;;;;5.95;5.30;;;12.80;87.00;;;;;;5048243;28;20029;-88
2022/06/01 04:28:05;;;;;;;5.95;5.15;;;12.70;87.30;;;;;;5032271;28;21300;-90
2022/06/01 04:30:30;;;;;;;6.47;5.18;;;12.70;87.60;;;;;;5051539;28;20033;-89
2022/06/01 04:32:57;;;;;;;7.43;5.30;;;12.70;87.70;;;;;;5025336;28;20028;-89
2022/06/01 04:35:24;;;;;;;6.60;5.00;;;12.70;87.90;;;;;;5048770;28;20178;-89
2022/06/01 04:37:50;;;;;;;6.43;4.93;;;12.70;88.00;;;;;;5025719;28;20021;-88
2022/06/01 04:40:17;;;;;;;5.10;4.57;;;12.80;88.10;;;;;;5038659;28;20025;-88
2022/06/01 04:42:43;;;;;;;5.93;5.30;;;12.80;88.20;;;;;;5029560;28;20048;-89
2022/06/01 04:45:11;;;;;;;6.55;4.97;;;12.90;88.30;;;;;;5031224;28;20028;-89
2022/06/01 04:47:37;;;;;;;7.90;4.80;;;13.00;88.50;;;;;;5054680;28;20028;-89
2022/06/01 04:50:06;;;;;;;6.38;4.78;;;13.10;88.20;;;;;;5027505;28;20139;-89
2022/06/01 04:57:37;;;;;;;6.28;4.65;;;13.40;88.40;;;;;;5053934;28;20057;-88
2022/06/01 05:00:04;;;;;;;4.07;3.63;;;13.60;88.50;;;;;;5043378;28;20078;-86
2022/06/01 05:09:36;;;;;;;4.25;3.20;;;13.90;87.90;;;;;;5015747;22;20055;-87
2022/06/01 05:12:26;;;;;;;5.47;3.03;;;13.90;87.40;;;;;;5093062;28;20036;-87
2022/06/01 05:15:13;;;;;;;3.35;3.05;;;14.10;87.50;;;;;;5066187;28;20116;-87
2022/06/01 05:18:28;;;;;;;10.48;5.20;;;14.10;87.60;;;;;;5072040;28;20031;-87
2022/06/01 05:21:08;;;;;;;5.38;2.88;;;14.30;87.50;;;;;;5093651;28;20036;-87
2022/06/01 05:24:00;;;;;;;3.65;2.75;;;14.40;87.10;;;;;;5090953;28;20029;-87
2022/06/01 05:26:36;;;;;;;3.70;2.90;;;14.50;87.20;;;;;;5082818;28;20091;-87
2022/06/01 05:29:07;;;;;;;3.05;2.80;;;14.60;87.10;;;;;;5084500;28;20086;-89
2022/06/01 05:32:26;;;;;;;3.97;3.15;;;14.70;86.80;;;;;;5081019;28;20555;-88
2022/06/01 05:35:03;;;;;;;;;;;14.70;86.60;;;;;;5056163;28;20036;-87
2022/06/01 05:37:36;;;;;;;4.03;2.95;;;14.70;85.90;;;;;;5074353;28;19912;-86
2022/06/01 09:34:25;;;;;;;3.03;0.80;;;26.00;54.50;;;;;;5091344;23;20127;-89
2022/06/01 09:37:09;;;;;;;1.30;1.02;;;27.30;52.80;;;;;;5018536;28;20041;-89
2022/06/01 09:39:37;;;;;;;1.35;0.80;;;27.80;50.60;;;;;;5017870;28;20021;-89
2022/06/01 09:42:46;;;;;;;2.45;0.80;;;28.50;48.60;;;;;;5028189;28;20029;-89
2022/06/01 09:45:28;;;;;;;0.50;0.50;;;29.30;47.90;;;;;;5023639;28;20131;-88
2022/06/01 09:48:08;;;;;;;3.88;0.70;;;29.20;48.20;;;;;;5028065;28;20084;-87
2022/06/01 09:50:34;;;;;;;1.98;0.70;;;29.80;48.00;;;;;;5031242;28;20062;-87
2022/06/01 09:53:21;;;;;;;0.88;0.60;;;30.00;46.00;;;;;;5032133;28;20064;-87
2022/06/01 09:55:54;;;;;;;3.45;0.70;;;29.20;45.00;;;;;;5045534;28;20033;-88
2022/06/01 10:07:18;;;;;;;1.80;0.88;;;30.20;42.60;;;;;;5049408;28;20170;-92
2022/06/01 10:09:50;;;;;;;2.08;0.70;;;31.10;41.10;;;;;;5047516;28;20024;-86
2022/06/01 10:12:33;;;;;;;;;;;30.00;41.50;;;;;;5031435;28;20056;-87
2022/06/01 10:15:03;;;;;;;2.63;0.82;;;29.50;43.10;;;;;;5031502;28;19916;-86
2022/06/01 10:17:34;;;;;;;1.90;0.70;;;29.90;41.40;;;;;;5051898;28;20115;-86
2022/06/01 10:20:25;;;;;;;0.70;0.70;;;30.90;40.90;;;;;;5036243;28;20542;-86
2022/06/01 10:23:01;;;;;;;1.60;0.90;;;30.20;40.70;;;;;;5032140;28;20031;-85
2022/06/01 10:25:37;;;;;;;0.90;0.77;;;28.80;42.20;;;;;;5044400;28;20021;-85
2022/06/01 10:28:06;;;;;;;0.93;0.82;;;28.30;42.10;;;;;;5030556;28;20039;-86
2022/06/01 10:30:43;;;;;;;1.35;0.88;;;27.70;42.20;;;;;;5045784;28;20489;-85
2022/06/01 10:33:17;;;;;;;1.10;0.80;;;27.90;43.00;;;;;;5021324;28;20037;-88
2022/06/01 10:35:56;;;;;;;2.53;0.88;;;28.90;42.20;;;;;;5027550;28;20024;-87
2022/06/01 10:38:30;;;;;;;1.23;0.75;;;29.60;42.70;;;;;;5027586;28;20463;-88
2022/06/01 10:41:46;;;;;;;1.15;0.82;;;29.30;42.70;;;;;;5030259;28;20017;-87
2022/06/01 10:44:37;;;;;;;2.80;1.08;;;29.40;43.00;;;;;;5019762;28;20106;-88
2022/06/01 10:47:25;;;;;;;1.73;1.00;;;29.10;43.00;;;;;;5047886;28;20041;-88
2022/06/01 10:50:10;;;;;;;1.25;0.90;;;28.50;43.60;;;;;;5036876;28;20051;-88
2022/06/01 10:55:13;;;;;;;2.67;1.00;;;27.50;44.10;;;;;;5069875;28;20079;-88
2022/06/01 10:57:43;;;;;;;2.55;1.00;;;26.70;43.90;;;;;;5054082;28;20036;-89
2022/06/01 11:00:16;;;;;;;1.17;0.70;;;25.90;44.70;;;;;;5067428;28;20412;-89
2022/06/01 11:02:44;;;;;;;2.65;0.98;;;25.10;45.60;;;;;;5046049;28;20060;-88
2022/06/01 11:05:44;;;;;;;1.13;0.95;;;24.80;46.30;;;;;;5051452;28;20456;-89
2022/06/01 11:08:23;;;;;;;3.28;1.10;;;24.70;47.10;;;;;;5053444;28;20077;-89
2022/06/01 11:11:11;;;;;;;5.05;1.10;;;24.30;47.20;;;;;;5051166;28;20073;-88
2022/06/01 11:13:46;;;;;;;5.80;1.02;;;24.20;47.70;;;;;;5067916;28;20033;-88
2022/06/01 11:16:33;;;;;;;3.10;0.90;;;24.20;48.20;;;;;;5050975;28;20111;-89
2022/06/01 11:19:07;;;;;;;1.55;0.90;;;24.20;48.30;;;;;;5081497;28;20191;-86
2022/06/01 11:22:00;;;;;;;2.92;1.23;;;24.30;48.20;;;;;;5094647;28;20017;-87
2022/06/01 11:24:29;;;;;;;1.17;0.70;;;24.30;48.80;;;;;;5072039;28;20038;-88
2022/06/01 11:26:59;;;;;;;4.65;1.02;;;24.30;49.10;;;;;;5083243;28;20040;-88
2022/06/01 11:29:39;;;;;;;6.22;0.80;;;24.50;48.70;;;;;;5054631;28;20099;-89
2022/06/01 11:32:12;;;;;;;2.42;0.95;;;24.30;48.00;;;;;;5065650;28;20036;-89
2022/06/01 11:35:05;;;;;;;1.73;1.17;;;24.00;47.40;;;;;;5068681;28;20095;-89
2022/06/01 11:37:46;;;;;;;3.03;0.90;;;23.60;48.00;;;;;;5051535;28;20473;-89
2022/06/01 11:40:20;;;;;;;2.15;0.85;;;23.30;48.40;;;;;;5049103;28;20635;-90
2022/06/01 11:42:55;;;;;;;5.20;0.98;;;23.30;48.80;;;;;;5046277;28;20361;-90
2022/06/01 11:45:32;;;;;;;3.03;1.05;;;23.30;48.30;;;;;;5057004;28;20028;-90
2022/06/01 11:48:08;;;;;;;5.90;0.80;;;23.40;48.20;;;;;;5051036;28;20024;-90
2022/06/01 11:50:44;;;;;;;1.63;0.95;;;23.40;47.80;;;;;;5049930;28;20134;-90
2022/06/01 11:53:13;;;;;;;1.60;0.80;;;23.40;48.10;;;;;;5055512;28;20082;-88
2022/06/01 11:55:38;;;;;;;1.15;0.80;;;23.60;47.80;;;;;;5048986;28;20037;-89
2022/06/01 11:58:26;;;;;;;1.95;0.73;;;23.60;47.60;;;;;;5047102;28;20040;-88
2022/06/01 12:01:08;;;;;;;3.20;0.90;;;23.80;48.60;;;;;;5050292;28;20020;-88
2022/06/01 12:03:55;;;;;;;4.88;0.70;;;24.00;48.60;;;;;;5040875;28;20092;-88
2022/06/01 12:06:40;;;;;;;2.13;0.70;;;24.20;48.90;;;;;;5064001;28;20068;-87
2022/06/01 12:09:23;;;;;;;1.80;0.80;;;24.40;48.60;;;;;;5048139;28;20039;-87
2022/06/01 12:11:49;;;;;;;1.05;0.75;;;24.30;48.50;;;;;;5066126;28;20032;-89
2022/06/01 12:15:10;;;;;;;1.13;0.70;;;24.10;47.80;;;;;;5066574;28;20032;-87
2022/06/01 12:17:36;;;;;;;1.02;0.70;;;24.00;48.10;;;;;;5027337;28;20035;-87
2022/06/01 12:20:11;;;;;;;2.40;0.90;;;24.10;48.20;;;;;;5066017;28;20035;-88
2022/06/01 12:28:54;;;;;;;3.13;0.70;;;24.20;47.40;;;;;;5066957;28;20035;-87
2022/06/01 12:31:33;;;;;;;2.05;0.80;;;23.90;47.00;;;;;;5050158;28;20020;-87
2022/06/01 12:34:09;;;;;;;1.08;0.70;;;23.90;47.30;;;;;;5065857;28;20130;-88
2022/06/01 12:36:46;;;;;;;1.65;0.98;;;23.80;47.20;;;;;;5072753;28;20370;-86
2022/06/01 12:39:33;;;;;;;2.15;1.00;;;23.70;46.80;;;;;;5052586;28;20024;-87
2022/06/01 12:42:08;;;;;;;3.58;0.75;;;23.70;47.40;;;;;;5070852;28;20012;-87
2022/06/01 12:44:35;;;;;;;3.05;0.93;;;23.80;47.00;;;;;;5056206;28;20369;-87
2022/06/01 12:47:01;;;;;;;3.50;0.90;;;23.80;47.30;;;;;;5056944;28;20040;-87
2022/06/01 12:49:41;;;;;;;1.10;1.00;;;23.80;46.80;;;;;;5055249;28;20016;-87
2022/06/01 12:52:11;;;;;;;1.70;0.70;;;23.70;47.20;;;;;;5055328;28;20074;-87
2022/06/01 12:54:51;;;;;;;2.15;0.60;;;23.70;46.80;;;;;;5054837;28;20031;-88
2022/06/01 12:57:27;;;;;;;1.40;0.93;;;23.70;47.00;;;;;;5055688;28;20063;-88
2022/06/01 13:00:11;;;;;;;0.70;0.70;;;23.80;47.10;;;;;;5055746;28;20040;-88
2022/06/01 13:02:39;;;;;;;2.88;0.80;;;23.90;46.60;;;;;;5055704;28;20021;-88
2022/06/01 13:05:07;;;;;;;1.67;0.70;;;24.00;46.90;;;;;;5056013;28;20033;-88
2022/06/01 13:07:40;;;;;;;1.45;0.95;;;24.00;46.80;;;;;;5081168;28;20021;-87
2022/06/01 13:10:18;;;;;;;0.82;0.63;;;24.10;46.80;;;;;;5076772;28;20017;-88
2022/06/01 13:12:45;;;;;;;4.95;0.80;;;24.10;47.20;;;;;;5079010;28;20203;-88
2022/06/01 13:15:24;;;;;;;1.92;0.82;;;24.20;47.00;;;;;;5077200;28;20028;-88
2022/06/01 13:18:01;;;;;;;1.23;0.70;;;24.20;46.30;;;;;;5053168;28;20017;-88
2022/06/01 13:20:33;;;;;;;3.13;0.90;;;24.10;46.00;;;;;;5047872;28;20051;-88
2022/06/01 13:22:59;;;;;;;0.77;0.77;;;24.00;46.40;;;;;;5053984;28;20068;-88
2022/06/01 13:25:31;;;;;;;4.07;0.93;;;23.90;46.20;;;;;;5059574;28;20036;-88
2022/06/01 13:27:57;;;;;;;2.97;1.00;;;23.90;45.90;;;;;;5035078;28;20091;-88
2022/06/01 13:30:26;;;;;;;1.80;0.63;;;23.70;46.50;;;;;;5043350;28;20039;-88
2022/06/01 13:32:52;;;;;;;1.42;0.88;;;23.70;46.60;;;;;;5062046;28;20031;-88
2022/06/01 13:35:32;;;;;;;1.13;0.90;;;23.60;46.50;;;;;;5052470;28;20016;-88
2022/06/01 13:37:58;;;;;;;2.72;0.90;;;23.50;46.80;;;;;;5072180;28;20069;-87
2022/06/01 13:40:29;;;;;;;2.70;0.98;;;23.50;46.80;;;;;;5053692;28;20024;-88
2022/06/01 13:43:01;;;;;;;2.50;1.05;;;23.60;47.00;;;;;;5049524;28;20112;-89
2022/06/01 13:45:52;;;;;;;0.82;0.80;;;23.60;47.00;;;;;;5053023;28;20031;-88
2022/06/01 13:48:48;;;;;;;1.65;1.00;;;23.60;47.50;;;;;;5057832;28;20051;-87
2022/06/01 13:51:33;;;;;;;1.17;0.98;;;23.70;47.30;;;;;;5053040;28;20044;-88
2022/06/01 13:53:59;;;;;;;1.75;1.10;;;23.70;47.20;;;;;;5044065;28;20029;-88
2022/06/01 13:56:41;;;;;;;2.58;1.00;;;23.60;47.10;;;;;;5038052;28;20070;-87
2022/06/01 13:59:34;;;;;;;2.77;0.70;;;23.60;46.80;;;;;;5072424;28;20075;-88
2022/06/01 14:02:06;;;;;;;2.55;0.90;;;23.50;47.10;;;;;;5021637;28;20021;-89
2022/06/01 14:04:45;;;;;;;5.63;0.90;;;23.40;47.10;;;;;;5047862;28;20400;-88
2022/06/01 14:07:16;;;;;;;1.83;0.63;;;23.30;47.50;;;;;;5053560;28;20107;-88
2022/06/01 14:10:00;;;;;;;6.97;0.93;;;23.20;47.20;;;;;;5050937;28;20033;-87
2022/06/01 14:12:27;;;;;;;5.90;0.70;;;23.20;47.60;;;;;;5070493;28;20052;-89
2022/06/01 14:14:56;;;;;;;2.72;0.80;;;23.20;47.50;;;;;;5070896;28;20069;-89
2022/06/01 14:17:26;;;;;;;1.85;0.80;;;23.20;47.30;;;;;;5061923;28;20021;-88
2022/06/01 14:19:51;;;;;;;6.00;1.00;;;23.10;46.80;;;;;;5049706;28;20559;-89
2022/06/01 14:22:17;;;;;;;3.90;0.93;;;23.10;47.00;;;;;;5049354;28;20028;-88
2022/06/01 14:30:14;;;;;;;3.33;1.00;;;23.20;47.80;;;;;;5070321;28;20111;-89
2022/06/01 14:32:43;;;;;;;1.13;0.80;;;23.20;47.50;;;;;;5049896;28;20040;-89
2022/06/01 14:35:15;;;;;;;1.50;0.80;;;23.20;47.50;;;;;;5069549;28;20111;-90
2022/06/01 14:37:42;;;;;;;0.98;0.80;;;23.10;47.30;;;;;;5047820;28;20028;-89
2022/06/01 14:40:08;;;;;;;3.28;0.77;;;23.10;47.30;;;;;;5046109;28;20044;-89
2022/06/01 14:42:34;;;;;;;2.00;0.70;;;23.10;47.40;;;;;;5063641;28;20041;-89
2022/06/01 14:45:00;;;;;;;3.30;0.80;;;23.10;47.60;;;;;;5048614;28;20028;-88
2022/06/01 14:47:26;;;;;;;2.33;0.90;;;23.10;47.70;;;;;;5070985;28;20037;-88
2022/06/01 14:49:51;;;;;;;2.05;0.88;;;23.10;47.40;;;;;;5069945;28;20071;-88
2022/06/01 14:52:17;;;;;;;0.75;0.75;;;23.20;47.40;;;;;;5051222;28;20028;-88
2022/06/01 14:54:43;;;;;;;8.23;1.13;;;23.10;47.10;;;;;;5052120;28;20024;-88
2022/06/01 14:57:10;;;;;;;1.52;0.80;;;23.10;47.20;;;;;;5078090;28;20033;-92
2022/06/01 14:59:38;;;;;;;2.92;1.05;;;23.10;47.10;;;;;;5063388;28;20036;-92
2022/06/01 15:02:05;;;;;;;2.92;0.70;;;23.10;47.70;;;;;;5054476;28;20059;-87
2022/06/01 15:04:37;;;;;;;0.93;0.80;;;23.10;46.80;;;;;;5051270;28;20438;-89
2022/06/01 15:07:05;;;;;;;4.65;1.00;;;23.00;46.90;;;;;;5051042;28;20028;-88
2022/06/01 15:09:35;;;;;;;1.88;0.85;;;23.00;47.10;;;;;;5043913;28;20027;-88
2022/06/01 15:12:02;;;;;;;1.67;0.98;;;23.10;47.70;;;;;;5050051;28;20092;-88
2022/06/01 15:14:28;;;;;;;0.73;0.70;;;23.10;47.70;;;;;;5068701;28;20021;-89
2022/06/01 15:17:02;;;;;;;2.25;0.70;;;23.20;47.60;;;;;;5071102;28;20013;-93
2022/06/01 15:19:38;;;;;;;1.67;0.70;;;23.20;47.10;;;;;;5063393;28;20550;-93
2022/06/01 15:22:04;;;;;;;2.30;0.80;;;23.20;47.10;;;;;;5055770;28;20059;-89
2022/06/01 15:24:30;;;;;;;1.05;0.60;;;23.20;47.20;;;;;;5050368;28;20508;-89
2022/06/01 15:26:56;;;;;;;1.52;0.85;;;23.20;46.80;;;;;;5044567;28;20021;-88
2022/06/01 15:40:21;;;;;;;5.40;0.77;;;22.90;46.80;;;;;;5065321;28;20161;-88
2022/06/01 15:42:47;;;;;;;3.35;0.90;;;22.90;47.00;;;;;;5058585;28;20020;-89
2022/06/01 15:45:13;;;;;;;0.80;0.60;;;23.00;47.00;;;;;;5085840;28;20024;-87
2022/06/01 15:47:39;;;;;;;1.50;0.60;;;23.00;46.80;;;;;;5077783;28;20088;-88
2022/06/01 15:50:08;;;;;;;3.20;1.00;;;23.00;46.70;;;;;;5094210;28;20020;-88
2022/06/01 15:52:34;;;;;;;0.90;0.80;;;23.10;46.70;;;;;;5073323;28;20029;-88
2022/06/01 15:55:01;;;;;;;10.50;1.08;;;23.10;46.90;;;;;;5080206;28;20082;-88
2022/06/01 15:57:27;;;;;;;2.47;0.70;;;23.10;46.70;;;;;;5056473;28;20387;-90
2022/06/01 15:59:53;;;;;;;3.00;0.80;;;23.10;46.60;;;;;;5054997;28;20453;-90
2022/06/01 16:02:24;;;;;;;4.10;0.90;;;23.10;46.60;;;;;;5055480;28;20048;-90
2022/06/01 16:04:50;;;;;;;1.08;0.80;;;23.00;46.90;;;;;;5056005;28;20028;-92
2022/06/01 16:07:21;;;;;;;1.00;0.60;;;23.00;46.70;;;;;;5057656;28;20473;-89
2022/06/01 16:09:48;;;;;;;2.03;0.90;;;22.80;46.80;;;;;;5075041;28;20489;-89
2022/06/01 16:12:14;;;;;;;0.65;0.65;;;22.80;46.90;;;;;;5058094;28;20028;-90
2022/06/01 16:14:40;;;;;;;2.15;0.68;;;22.80;47.40;;;;;;5054341;28;20029;-90
2022/06/01 16:17:18;;;;;;;3.90;0.63;;;22.80;47.30;;;;;;5074910;28;20012;-87
2022/06/01 16:19:44;;;;;;;1.85;0.75;;;22.70;46.70;;;;;;5051906;28;20369;-88
2022/06/01 16:22:10;;;;;;;1.67;0.77;;;22.60;47.40;;;;;;5056119;28;20025;-89
2022/06/01 16:24:36;;;;;;;1.52;0.70;;;22.60;47.10;;;;;;5049664;28;20032;-89
2022/06/01 16:27:02;;;;;;;4.13;0.70;;;22.50;47.10;;;;;;5057706;28;20020;-89
2022/06/01 16:29:31;;;;;;;2.13;0.63;;;22.50;47.20;;;;;;5052707;28;20029;-89
2022/06/01 16:31:57;;;;;;;3.83;0.90;;;22.50;47.10;;;;;;5050422;28;20025;-89
2022/06/01 16:34:22;;;;;;;2.17;0.82;;;22.50;47.30;;;;;;5056275;28;20030;-90
2022/06/01 16:36:48;;;;;;;3.25;0.80;;;22.50;47.30;;;;;;5076032;28;20079;-90
2022/06/01 16:39:22;;;;;;;3.75;0.85;;;22.50;47.40;;;;;;5074846;28;20025;-91
2022/06/01 16:41:51;;;;;;;1.92;0.70;;;22.50;47.90;;;;;;5055732;28;20025;-91
2022/06/01 16:44:23;;;;;;;4.10;0.82;;;22.50;47.70;;;;;;5056885;28;20077;-90
2022/06/01 16:46:49;;;;;;;1.20;0.90;;;22.50;47.60;;;;;;5053265;28;20040;-91
2022/06/01 16:49:15;;;;;;;0.88;0.88;;;22.50;47.70;;;;;;5046505;28;20036;-91
2022/06/01 16:51:40;;;;;;;1.40;0.85;;;22.50;47.90;;;;;;5053952;28;20622;-91
2022/06/01 16:56:36;;;;;;;0.90;0.75;;;22.60;48.10;;;;;;5023118;28;20057;-87
2022/06/01 16:59:04;;;;;;;1.85;0.90;;;22.60;48.00;;;;;;5010413;28;20092;-87
2022/06/01 17:01:30;;;;;;;0.70;0.70;;;22.50;47.80;;;;;;5015266;28;20493;-88
2022/06/01 17:03:55;;;;;;;3.33;0.90;;;22.40;47.70;;;;;;5004557;28;20022;-87
2022/06/01 17:06:21;;;;;;;2.08;0.90;;;22.40;47.80;;;;;;5044600;28;20025;-88
2022/06/01 17:08:47;;;;;;;5.82;0.80;;;22.40;47.90;;;;;;5005121;28;20033;-88
2022/06/01 17:11:14;;;;;;;0.90;0.73;;;22.50;48.00;;;;;;5023601;28;20025;-88
2022/06/01 17:13:41;;;;;;;0.65;0.57;;;22.40;47.80;;;;;;5003284;28;20120;-88
2022/06/01 17:16:08;;;;;;;3.40;0.82;;;22.50;47.90;;;;;;5028957;28;20021;-87
2022/06/01 17:18:34;;;;;;;1.00;0.60;;;22.50;48.20;;;;;;5027083;28;20470;-87
2022/06/01 17:20:59;;;;;;;0.82;0.60;;;22.50;48.20;;;;;;5017737;28;20112;-88
2022/06/01 17:23:26;;;;;;;7.95;0.70;;;22.40;48.00;;;;;;5010055;28;20044;-90
2022/06/01 17:25:52;;;;;;;3.08;0.85;;;22.30;48.10;;;;;;5025777;28;20029;-89
2022/06/01 17:28:18;;;;;;;3.25;0.90;;;22.20;47.90;;;;;;5007638;28;20160;-88
2022/06/01 17:30:45;;;;;;;1.92;0.70;;;22.20;48.10;;;;;;5029716;28;20029;-88
2022/06/01 17:33:19;;;;;;;3.10;0.82;;;22.10;48.00;;;;;;5000598;28;20034;-88
2022/06/01 17:35:45;;;;;;;1.65;0.77;;;22.10;48.10;;;;;;5001590;28;20026;-88
2022/06/01 17:38:10;;;;;;;2.67;0.63;;;22.10;48.20;;;;;;5003988;28;20450;-87
2022/06/01 17:40:36;;;;;;;6.22;0.90;;;22.00;48.30;;;;;;5012766;28;20112;-87
2022/06/01 17:43:02;;;;;;;1.25;0.50;;;22.00;48.30;;;;;;5034993;28;20033;-88
2022/06/01 17:45:28;;;;;;;4.13;0.70;;;22.00;48.60;;;;;;5026643;28;20032;-87
2022/06/01 17:47:59;;;;;;;2.35;0.90;;;22.00;48.80;;;;;;5024245;28;20104;-91
2022/06/01 17:50:25;;;;;;;0.80;0.47;;;21.90;48.70;;;;;;5012695;28;20068;-90
2022/06/01 17:52:53;;;;;;;1.00;0.90;;;21.90;48.50;;;;;;5000280;28;20060;-91
2022/06/01 17:55:20;;;;;;;1.60;0.60;;;21.90;48.50;;;;;;5016189;28;20293;-91
2022/06/01 17:57:46;;;;;;;1.77;0.73;;;21.90;48.50;;;;;;5025525;28;20028;-91
2022/06/01 18:00:18;;;;;;;4.00;0.52;;;21.80;48.80;;;;;;5035919;28;20028;-92